createdAt,value
2023-02-23T00:01:18.120Z,7.55
2023-02-23T00:03:20.098Z,7.07
2023-02-23T00:05:23.183Z,8.02
2023-02-23T00:07:27.085Z,7.40
2023-02-23T00:09:35.540Z,7.30
2023-02-23T00:11:39.043Z,7.03
2023-02-23T00:13:42.094Z,6.53
2023-02-23T00:15:43.567Z,7.45
2023-02-23T00:17:47.735Z,6.55
2023-02-23T00:19:49.488Z,7.18
2023-02-23T00:21:52.117Z,7.00
2023-02-23T00:23:57.471Z,6.50
2023-02-23T00:25:59.540Z,6.45
2023-02-23T00:28:01.067Z,6.85
2023-02-23T00:30:02.687Z,7.13
2023-02-23T00:32:04.443Z,6.53
2023-02-23T00:34:07.595Z,6.82
2023-02-23T00:36:11.840Z,6.43
2023-02-23T00:38:13.995Z,6.70
2023-02-23T00:40:18.166Z,6.18
2023-02-23T00:42:20.012Z,5.78
2023-02-23T00:44:23.697Z,6.47
2023-02-23T00:46:27.950Z,6.90
2023-02-23T00:48:29.495Z,6.45
2023-02-23T00:50:32.514Z,6.85
2023-02-23T00:52:34.121Z,7.40
2023-02-23T00:54:37.823Z,6.57
2023-02-23T00:56:42.328Z,6.90
2023-02-23T00:58:43.896Z,7.35
2023-02-23T01:00:45.451Z,6.50
2023-02-23T01:02:48.608Z,6.30
2023-02-23T01:04:50.416Z,6.22
2023-02-23T01:06:51.921Z,6.60
2023-02-23T01:08:56.761Z,6.20
2023-02-23T01:10:58.612Z,7.03
2023-02-23T01:13:00.040Z,6.38
2023-02-23T01:15:03.580Z,7.10
2023-02-23T01:17:07.512Z,6.97
2023-02-23T01:19:11.527Z,6.68
2023-02-23T01:21:19.052Z,6.63
2023-02-23T01:23:21.914Z,6.32
2023-02-23T01:25:24.516Z,6.63
2023-02-23T01:27:26.627Z,7.07
2023-02-23T01:29:29.528Z,6.32
2023-02-23T01:31:31.511Z,6.30
2023-02-23T01:33:33.000Z,6.07
2023-02-23T01:35:36.238Z,5.65
2023-02-23T01:37:42.787Z,5.90
2023-02-23T01:39:45.465Z,5.88
2023-02-23T01:41:47.113Z,5.90
2023-02-23T01:44:06.370Z,6.05
2023-02-23T01:46:10.471Z,6.50
2023-02-23T01:48:30.434Z,5.97
2023-02-23T01:50:39.169Z,6.00
2023-02-23T01:52:41.079Z,6.30
2023-02-23T01:54:54.926Z,6.75
2023-02-23T01:57:00.516Z,6.10
2023-02-23T01:59:07.219Z,6.45
2023-02-23T02:01:11.480Z,6.72
2023-02-23T02:03:22.657Z,6.35
2023-02-23T02:05:25.808Z,6.40
2023-02-23T02:07:35.572Z,6.70
2023-02-23T02:09:39.876Z,6.85
2023-02-23T02:11:44.579Z,6.60
2023-02-23T02:13:46.445Z,6.05
2023-02-23T02:16:05.387Z,6.68
2023-02-23T02:18:23.622Z,6.50
2023-02-23T02:20:53.387Z,6.75
2023-02-23T02:23:36.758Z,6.53
2023-02-23T02:25:58.176Z,6.68
2023-02-23T02:28:08.849Z,7.38
2023-02-23T02:30:27.215Z,6.82
2023-02-23T02:32:58.089Z,6.97
2023-02-23T02:35:27.105Z,7.00
2023-02-23T02:37:43.433Z,6.90
2023-02-23T02:40:16.214Z,7.38
2023-02-23T02:42:34.515Z,7.20
2023-02-23T02:44:54.619Z,7.13
2023-02-23T02:47:04.750Z,7.20
2023-02-23T02:49:30.042Z,7.03
2023-02-23T02:51:42.998Z,7.22
2023-02-23T02:53:53.049Z,7.47
2023-02-23T02:56:00.346Z,7.18
2023-02-23T02:58:03.450Z,7.05
2023-02-23T03:00:24.321Z,7.00
2023-02-23T03:02:44.788Z,7.22
2023-02-23T03:05:05.185Z,7.07
2023-02-23T03:08:15.526Z,7.50
2023-02-23T03:10:38.732Z,6.88
2023-02-23T03:13:26.382Z,6.63
2023-02-23T03:15:52.379Z,6.80
2023-02-23T03:18:43.819Z,7.00
2023-02-23T03:21:13.042Z,6.18
2023-02-23T03:23:42.904Z,7.15
2023-02-23T03:26:27.363Z,6.65
2023-02-23T03:28:56.346Z,6.95
2023-02-23T03:31:57.105Z,7.28
2023-02-23T03:34:33.447Z,6.57
2023-02-23T03:36:58.359Z,7.38
2023-02-23T03:39:40.441Z,7.07
2023-02-23T03:42:03.225Z,7.10
2023-02-23T03:44:32.889Z,7.00
2023-02-23T03:46:54.906Z,7.25
2023-02-23T03:49:20.347Z,6.95
2023-02-23T03:51:44.316Z,7.22
2023-02-23T03:54:14.405Z,6.75
2023-02-23T03:56:38.257Z,7.18
2023-02-23T03:59:03.396Z,7.45
2023-02-23T04:01:26.559Z,6.63
2023-02-23T04:03:50.673Z,7.38
2023-02-23T04:06:14.595Z,6.75
2023-02-23T04:08:38.552Z,7.40
2023-02-23T04:11:07.332Z,7.30
2023-02-23T04:13:20.014Z,8.00
2023-02-23T04:15:38.073Z,6.60
2023-02-23T04:17:40.259Z,7.60
2023-02-23T04:19:53.016Z,7.28
2023-02-23T04:21:58.381Z,6.93
2023-02-23T04:23:59.964Z,7.75
2023-02-23T04:26:01.587Z,7.38
2023-02-23T04:28:03.543Z,7.40
2023-02-23T04:30:05.811Z,7.95
2023-02-23T04:32:08.157Z,7.78
2023-02-23T04:34:09.972Z,8.02
2023-02-23T04:36:11.731Z,8.35
2023-02-23T04:38:13.236Z,8.50
2023-02-23T04:40:15.141Z,8.55
2023-02-23T04:42:17.710Z,7.82
2023-02-23T04:44:19.393Z,8.27
2023-02-23T04:46:21.140Z,8.05
2023-02-23T04:48:25.099Z,8.70
2023-02-23T04:50:26.971Z,8.32
2023-02-23T04:52:28.638Z,8.15
2023-02-23T04:54:30.112Z,8.52
2023-02-23T04:56:31.844Z,8.82
2023-02-23T04:58:33.354Z,9.25
2023-02-23T05:00:34.925Z,9.55
2023-02-23T05:02:42.415Z,10.70
2023-02-23T05:04:44.570Z,10.93
2023-02-23T05:06:46.186Z,10.05
2023-02-23T05:08:47.792Z,9.95
2023-02-23T05:10:49.434Z,10.25
2023-02-23T05:12:51.370Z,11.00
2023-02-23T05:14:52.852Z,9.77
2023-02-23T05:16:54.600Z,9.68
2023-02-23T05:18:56.848Z,9.43
2023-02-23T05:21:07.200Z,10.20
2023-02-23T05:23:09.086Z,10.15
2023-02-23T05:25:11.801Z,9.27
2023-02-23T05:27:17.053Z,9.68
2023-02-23T05:29:19.234Z,9.68
2023-02-23T05:31:23.359Z,9.23
2023-02-23T05:33:25.138Z,9.98
2023-02-23T05:35:26.759Z,9.30
2023-02-23T05:37:28.479Z,9.35
2023-02-23T05:39:30.499Z,9.45
2023-02-23T05:41:32.154Z,9.52
2023-02-23T05:43:33.780Z,9.20
2023-02-23T05:45:40.403Z,8.70
2023-02-23T05:47:44.837Z,9.00
2023-02-23T05:49:46.673Z,9.38
2023-02-23T05:51:48.848Z,8.40
2023-02-23T05:53:50.566Z,8.50
2023-02-23T05:55:52.263Z,8.27
2023-02-23T05:57:53.856Z,8.00
2023-02-23T05:59:55.611Z,8.52
2023-02-23T06:01:57.299Z,8.20
2023-02-23T06:03:58.959Z,9.30
2023-02-23T06:06:00.718Z,8.48
2023-02-23T06:08:02.647Z,9.20
2023-02-23T06:10:05.141Z,9.43
2023-02-23T06:12:07.099Z,9.98
2023-02-23T06:14:08.658Z,10.00
2023-02-23T06:16:10.411Z,9.90
2023-02-23T06:18:12.369Z,10.02
2023-02-23T06:20:14.655Z,9.52
2023-02-23T06:22:17.870Z,11.32
2023-02-23T06:24:19.788Z,10.38
2023-02-23T06:26:21.427Z,10.57
2023-02-23T06:28:23.396Z,10.40
2023-02-23T06:30:25.001Z,10.40
2023-02-23T06:32:27.088Z,10.75
2023-02-23T06:34:30.278Z,11.13
2023-02-23T06:36:34.220Z,10.95
2023-02-23T06:38:36.862Z,10.93
2023-02-23T06:40:39.743Z,9.90
2023-02-23T06:42:41.291Z,11.07
2023-02-23T06:44:42.866Z,10.77
2023-02-23T06:46:44.703Z,10.52
2023-02-23T06:48:46.885Z,10.35
2023-02-23T06:50:48.686Z,10.90
2023-02-23T06:52:52.328Z,11.13
2023-02-23T06:54:53.828Z,11.20
2023-02-23T06:56:56.752Z,10.77
2023-02-23T06:58:58.433Z,10.93
2023-02-23T07:01:00.196Z,11.43
2023-02-23T07:03:01.718Z,11.27
2023-02-23T07:05:04.443Z,11.00
2023-02-23T07:07:06.151Z,10.48
2023-02-23T07:09:07.707Z,9.73
2023-02-23T07:11:11.559Z,9.68
2023-02-23T07:13:13.038Z,10.45
2023-02-23T07:15:18.376Z,10.23
2023-02-23T07:17:22.122Z,9.73
2023-02-23T07:19:23.709Z,9.65
2023-02-23T07:21:25.366Z,10.10
2023-02-23T07:23:26.953Z,9.68
2023-02-23T07:25:31.533Z,9.25
2023-02-23T07:27:33.439Z,9.23
2023-02-23T07:29:34.956Z,8.43
2023-02-23T07:31:37.926Z,9.07
2023-02-23T07:33:39.729Z,8.73
2023-02-23T07:35:44.137Z,8.60
2023-02-23T07:37:45.820Z,8.90
2023-02-23T07:39:47.846Z,8.90
2023-02-23T07:41:49.440Z,8.85
2023-02-23T07:43:53.166Z,8.82
2023-02-23T07:45:54.757Z,9.20
2023-02-23T07:47:56.393Z,9.13
2023-02-23T07:50:08.174Z,8.77
2023-02-23T07:52:10.436Z,9.38
2023-02-23T07:54:11.957Z,9.20
2023-02-23T07:56:13.700Z,8.32
2023-02-23T07:58:15.539Z,9.05
2023-02-23T08:00:17.746Z,9.38
2023-02-23T08:02:19.411Z,8.60
2023-02-23T08:04:21.025Z,9.02
2023-02-23T08:06:22.643Z,8.93
2023-02-23T08:08:24.444Z,9.18
2023-02-23T08:10:26.414Z,9.40
2023-02-23T08:12:28.105Z,9.15
2023-02-23T08:14:29.752Z,9.50
2023-02-23T08:16:33.188Z,10.05
2023-02-23T08:18:35.346Z,10.07
2023-02-23T08:20:36.813Z,10.35
2023-02-23T08:22:48.961Z,9.90
2023-02-23T08:24:51.130Z,10.45
2023-02-23T08:26:53.355Z,11.07
2023-02-23T08:28:55.756Z,10.75
2023-02-23T08:30:59.559Z,10.60
2023-02-23T08:33:01.639Z,10.70
2023-02-23T08:35:03.485Z,10.00
2023-02-23T08:37:05.242Z,10.63
2023-02-23T08:39:07.486Z,10.85
2023-02-23T08:41:09.230Z,10.35
2023-02-23T08:43:10.963Z,11.77
2023-02-23T08:45:12.669Z,11.60
2023-02-23T08:47:16.410Z,10.93
2023-02-23T08:49:18.270Z,10.63
2023-02-23T08:51:20.201Z,11.25
2023-02-23T08:53:23.050Z,11.60
2023-02-23T08:55:24.664Z,10.98
2023-02-23T08:57:27.077Z,10.85
2023-02-23T08:59:28.604Z,10.63
2023-02-23T09:01:30.258Z,11.05
2023-02-23T09:03:36.478Z,10.60
2023-02-23T09:05:38.865Z,11.32
2023-02-23T09:07:45.135Z,11.05
2023-02-23T09:09:46.858Z,11.18
2023-02-23T09:11:48.536Z,10.60
2023-02-23T09:13:50.643Z,11.23
2023-02-23T09:15:52.128Z,12.25
2023-02-23T09:17:54.529Z,13.18
2023-02-23T09:19:56.168Z,14.45
2023-02-23T09:21:57.764Z,15.20
2023-02-23T09:23:59.878Z,13.90
2023-02-23T09:26:06.022Z,14.32
2023-02-23T09:28:07.589Z,14.13
2023-02-23T09:30:09.841Z,14.30
2023-02-23T09:32:11.734Z,13.18
2023-02-23T09:34:13.405Z,14.38
2023-02-23T09:36:18.499Z,13.57
2023-02-23T09:38:20.057Z,13.07
2023-02-23T09:40:31.612Z,13.20
2023-02-23T09:43:02.783Z,12.95
2023-02-23T09:45:18.839Z,12.65
2023-02-23T09:47:32.830Z,13.50
2023-02-23T09:49:44.477Z,12.68
2023-02-23T09:51:53.934Z,12.27
2023-02-23T09:54:02.334Z,12.55
2023-02-23T09:56:35.415Z,13.38
2023-02-23T09:58:39.891Z,13.45
2023-02-23T10:00:49.448Z,12.77
2023-02-23T10:03:04.225Z,14.02
2023-02-23T10:05:52.152Z,13.65
2023-02-23T10:08:03.145Z,13.02
2023-02-23T10:10:28.591Z,13.63
2023-02-23T10:12:52.313Z,13.63
2023-02-23T10:15:10.484Z,14.13
2023-02-23T10:17:33.974Z,14.32
2023-02-23T10:19:53.442Z,13.77
2023-02-23T10:21:59.769Z,13.85
2023-02-23T10:24:17.905Z,13.75
2023-02-23T10:26:24.981Z,14.13
2023-02-23T10:28:28.505Z,13.88
2023-02-23T10:30:33.639Z,13.23
2023-02-23T10:32:50.811Z,12.05
2023-02-23T10:34:57.843Z,13.85
2023-02-23T10:37:01.839Z,14.05
2023-02-23T10:39:08.133Z,13.65
2023-02-23T10:41:14.379Z,14.95
2023-02-23T10:43:16.499Z,14.10
2023-02-23T10:45:24.569Z,14.68
2023-02-23T10:47:37.594Z,13.35
2023-02-23T10:49:43.635Z,14.93
2023-02-23T10:51:45.591Z,14.68
2023-02-23T10:53:47.482Z,14.45
2023-02-23T10:56:02.794Z,14.57
2023-02-23T10:58:19.058Z,13.35
2023-02-23T11:00:21.522Z,13.10
2023-02-23T11:02:27.645Z,12.98
2023-02-23T11:04:35.237Z,12.63
2023-02-23T11:06:43.031Z,14.45
2023-02-23T11:08:44.598Z,13.10
2023-02-23T11:11:00.039Z,13.95
2023-02-23T11:13:04.559Z,13.75
2023-02-23T11:15:48.583Z,14.77
2023-02-23T11:17:56.780Z,13.32
2023-02-23T11:20:02.493Z,14.30
2023-02-23T11:22:06.224Z,13.75
2023-02-23T11:24:10.986Z,15.45
2023-02-23T11:26:32.877Z,16.42
2023-02-23T11:28:37.690Z,14.32
2023-02-23T11:30:43.900Z,16.35
2023-02-23T11:32:52.321Z,15.07
2023-02-23T11:35:21.313Z,14.73
2023-02-23T11:37:23.394Z,15.35
2023-02-23T11:39:25.183Z,16.25
2023-02-23T11:41:30.489Z,17.00
2023-02-23T11:43:32.244Z,13.88
2023-02-23T11:45:55.477Z,15.35
2023-02-23T11:48:02.146Z,15.27
2023-02-23T11:50:11.226Z,17.20
2023-02-23T11:52:16.873Z,14.85
2023-02-23T11:54:59.352Z,15.45
2023-02-23T11:57:02.976Z,14.10
2023-02-23T11:59:13.776Z,14.80
2023-02-23T12:01:20.949Z,13.82
2023-02-23T12:03:25.947Z,12.90
2023-02-23T12:05:31.791Z,12.15
2023-02-23T12:07:41.871Z,11.68
2023-02-23T12:09:49.420Z,12.68
2023-02-23T12:12:06.725Z,11.70
2023-02-23T12:14:20.801Z,11.65
2023-02-23T12:16:34.807Z,11.80
2023-02-23T12:19:00.460Z,12.23
2023-02-23T12:21:15.361Z,12.75
2023-02-23T12:23:22.515Z,12.23
2023-02-23T12:25:40.733Z,13.07
2023-02-23T12:27:57.195Z,12.35
2023-02-23T12:30:08.954Z,12.65
2023-02-23T12:32:39.789Z,11.32
2023-02-23T12:34:52.866Z,11.57
2023-02-23T12:37:08.621Z,11.88
2023-02-23T12:39:32.035Z,11.48
2023-02-23T12:41:42.099Z,11.35
2023-02-23T12:43:53.009Z,11.05
2023-02-23T12:46:10.028Z,11.32
2023-02-23T12:48:28.096Z,11.45
2023-02-23T12:50:38.395Z,11.27
2023-02-23T12:52:51.123Z,11.43
2023-02-23T12:54:53.560Z,12.45
2023-02-23T12:56:57.976Z,12.52
2023-02-23T12:59:13.364Z,12.82
2023-02-23T13:01:41.547Z,13.27
2023-02-23T13:03:49.428Z,12.73
2023-02-23T13:06:12.521Z,11.75
2023-02-23T13:08:28.886Z,12.32
2023-02-23T13:10:49.029Z,12.25
2023-02-23T13:13:04.984Z,11.65
2023-02-23T13:15:56.134Z,11.45
2023-02-23T13:18:25.906Z,12.52
2023-02-23T13:20:49.246Z,12.98
2023-02-23T13:23:16.553Z,12.45
2023-02-23T13:25:43.571Z,13.80
2023-02-23T13:27:51.750Z,12.60
2023-02-23T13:29:55.280Z,12.15
2023-02-23T13:31:57.958Z,12.13
2023-02-23T13:34:02.217Z,12.95
2023-02-23T13:36:04.882Z,12.50
2023-02-23T13:38:26.607Z,11.73
2023-02-23T13:40:35.387Z,14.15
2023-02-23T13:42:48.812Z,14.18
2023-02-23T13:45:25.451Z,12.73
2023-02-23T13:47:33.891Z,13.25
2023-02-23T13:49:49.393Z,12.25
2023-02-23T13:51:59.476Z,13.00
2023-02-23T13:54:06.555Z,11.02
2023-02-23T13:56:17.358Z,12.30
2023-02-23T13:58:29.726Z,12.93
2023-02-23T14:00:34.399Z,12.88
2023-02-23T14:02:40.840Z,10.85
2023-02-23T14:04:43.031Z,11.35
2023-02-23T14:06:56.413Z,12.38
2023-02-23T14:09:06.758Z,12.25
2023-02-23T14:11:08.585Z,12.95
2023-02-23T14:13:12.934Z,11.65
2023-02-23T14:15:37.918Z,11.90
2023-02-23T14:17:40.668Z,11.73
2023-02-23T14:20:13.295Z,13.65
2023-02-23T14:22:24.256Z,12.00
2023-02-23T14:24:27.708Z,11.00
2023-02-23T14:26:29.315Z,12.65
2023-02-23T14:28:32.512Z,12.07
2023-02-23T14:31:08.126Z,12.50
2023-02-23T14:33:34.132Z,12.70
2023-02-23T14:35:44.082Z,12.90
2023-02-23T14:37:56.251Z,12.75
2023-02-23T14:40:13.094Z,11.90
2023-02-23T14:42:26.471Z,10.93
2023-02-23T14:44:31.567Z,10.45
2023-02-23T14:46:35.999Z,10.88
2023-02-23T14:48:41.663Z,10.02
2023-02-23T14:50:43.482Z,9.65
2023-02-23T14:52:46.043Z,9.50
2023-02-23T14:54:48.221Z,8.85
2023-02-23T14:56:56.636Z,8.48
2023-02-23T14:59:02.061Z,8.32
2023-02-23T15:01:03.589Z,9.20
2023-02-23T15:03:12.695Z,8.02
2023-02-23T15:05:16.514Z,8.50
2023-02-23T15:07:38.460Z,8.30
2023-02-23T15:09:42.743Z,7.35
2023-02-23T15:11:48.645Z,7.53
2023-02-23T15:13:52.216Z,7.57
2023-02-23T15:15:54.955Z,7.90
2023-02-23T15:18:00.888Z,7.80
2023-02-23T15:20:16.252Z,7.07
2023-02-23T15:22:31.523Z,8.05
2023-02-23T15:24:44.598Z,8.82
2023-02-23T15:26:46.303Z,8.85
2023-02-23T15:28:48.112Z,8.07
2023-02-23T15:30:51.723Z,7.97
2023-02-23T15:33:29.221Z,8.00
2023-02-23T15:35:37.923Z,7.47
2023-02-23T15:39:57.028Z,8.70
2023-02-23T15:41:58.760Z,8.20
2023-02-23T15:44:13.187Z,7.80
2023-02-23T15:46:25.500Z,8.00
2023-02-23T15:48:37.116Z,7.90
2023-02-23T15:50:44.568Z,7.03
2023-02-23T15:52:50.272Z,7.72
2023-02-23T15:55:00.202Z,7.70
2023-02-23T15:57:27.423Z,7.03
2023-02-23T15:59:34.630Z,7.75
2023-02-23T16:01:42.818Z,7.50
2023-02-23T16:04:09.420Z,7.57
2023-02-23T16:06:32.641Z,6.70
2023-02-23T16:08:37.742Z,7.32
2023-02-23T16:10:47.181Z,7.93
2023-02-23T16:12:54.236Z,7.72
2023-02-23T16:14:59.647Z,7.88
2023-02-23T16:17:11.165Z,7.65
2023-02-23T16:19:15.136Z,7.43
2023-02-23T16:21:21.569Z,7.38
2023-02-23T16:23:45.650Z,7.82
2023-02-23T16:25:52.821Z,8.18
2023-02-23T16:28:02.906Z,7.80
2023-02-23T16:30:18.737Z,8.65
2023-02-23T16:32:23.656Z,8.32
2023-02-23T16:34:28.220Z,8.52
2023-02-23T16:36:41.059Z,9.52
2023-02-23T16:38:49.144Z,9.65
2023-02-23T16:40:50.905Z,9.15
2023-02-23T16:42:54.026Z,9.27
2023-02-23T16:44:57.680Z,10.23
2023-02-23T16:47:01.860Z,10.38
2023-02-23T16:49:10.414Z,11.00
2023-02-23T16:51:15.526Z,10.65
2023-02-23T16:53:17.570Z,10.38
2023-02-23T16:55:27.942Z,9.57
2023-02-23T16:57:37.347Z,9.07
2023-02-23T16:59:38.899Z,9.40
2023-02-23T17:01:40.387Z,8.05
2023-02-23T17:03:52.485Z,7.05
2023-02-23T17:05:55.136Z,7.80
2023-02-23T17:07:58.534Z,6.95
2023-02-23T17:10:00.178Z,7.15
2023-02-23T17:12:01.857Z,6.68
2023-02-23T17:14:03.695Z,7.30
2023-02-23T17:16:10.456Z,6.65
2023-02-23T17:18:11.990Z,6.30
2023-02-23T17:20:21.366Z,7.32
2023-02-23T17:22:23.054Z,7.00
2023-02-23T17:24:26.314Z,6.57
2023-02-23T17:26:28.380Z,6.50
2023-02-23T17:28:30.033Z,6.43
2023-02-23T17:30:31.924Z,6.50
2023-02-23T17:32:36.444Z,5.80
2023-02-23T17:34:38.540Z,5.95
2023-02-23T17:36:40.132Z,6.00
2023-02-23T17:38:44.514Z,5.47
2023-02-23T17:40:46.105Z,6.15
2023-02-23T17:42:47.661Z,6.32
2023-02-23T17:44:49.313Z,6.05
2023-02-23T17:46:51.006Z,5.65
2023-02-23T17:48:55.095Z,6.15
2023-02-23T17:51:03.825Z,6.63
2023-02-23T17:53:05.450Z,6.15
2023-02-23T17:55:09.447Z,6.90
2023-02-23T17:57:11.163Z,8.75
2023-02-23T17:59:12.876Z,9.27
2023-02-23T18:01:14.434Z,9.30
2023-02-23T18:03:16.481Z,9.00
2023-02-23T18:05:18.319Z,8.18
2023-02-23T18:07:21.646Z,7.63
2023-02-23T18:09:23.330Z,7.68
2023-02-23T18:11:25.232Z,8.38
2023-02-23T18:13:28.936Z,8.43
2023-02-23T18:15:33.342Z,7.57
2023-02-23T18:17:37.138Z,7.43
2023-02-23T18:19:39.188Z,7.35
2023-02-23T18:21:43.472Z,7.72
2023-02-23T18:23:45.316Z,8.07
2023-02-23T18:25:48.071Z,7.68
2023-02-23T18:27:51.131Z,8.70
2023-02-23T18:29:52.627Z,8.05
2023-02-23T18:31:55.436Z,8.45
2023-02-23T18:34:00.242Z,8.63
2023-02-23T18:36:05.098Z,8.52
2023-02-23T18:38:12.486Z,8.02
2023-02-23T18:40:21.429Z,7.95
2023-02-23T18:42:23.166Z,7.78
2023-02-23T18:44:25.456Z,7.32
2023-02-23T18:46:27.674Z,6.88
2023-02-23T18:48:29.137Z,7.00
2023-02-23T18:50:30.900Z,7.35
2023-02-23T18:52:33.509Z,7.78
2023-02-23T18:54:36.455Z,9.02
2023-02-23T18:56:38.128Z,9.77
2023-02-23T18:58:40.400Z,9.18
2023-02-23T19:00:42.582Z,9.00
2023-02-23T19:02:46.387Z,8.43
2023-02-23T19:04:48.177Z,8.52
2023-02-23T19:06:49.734Z,8.38
2023-02-23T19:08:54.343Z,8.25
2023-02-23T19:10:57.100Z,8.43
2023-02-23T19:12:58.609Z,8.48
2023-02-23T19:15:00.234Z,8.02
2023-02-23T19:17:03.050Z,7.82
2023-02-23T19:19:06.760Z,8.10
2023-02-23T19:21:11.294Z,8.60
2023-02-23T19:23:13.426Z,8.65
2023-02-23T19:25:15.305Z,8.13
2023-02-23T19:27:17.941Z,9.23
2023-02-23T19:29:19.552Z,8.73
2023-02-23T19:31:24.248Z,9.43
2023-02-23T19:33:26.076Z,8.60
2023-02-23T19:35:27.617Z,8.20
2023-02-23T19:37:29.230Z,8.70
2023-02-23T19:39:30.849Z,8.48
2023-02-23T19:41:33.700Z,8.38
2023-02-23T19:43:35.121Z,8.55
2023-02-23T19:45:36.838Z,8.18
2023-02-23T19:47:38.611Z,8.35
2023-02-23T19:49:40.190Z,8.43
2023-02-23T19:51:42.052Z,8.80
2023-02-23T19:53:43.537Z,9.15
2023-02-23T19:55:45.306Z,8.25
2023-02-23T19:57:47.112Z,8.57
2023-02-23T19:59:48.600Z,8.70
2023-02-23T20:01:51.439Z,8.45
2023-02-23T20:04:01.625Z,8.45
2023-02-23T20:06:05.975Z,8.48
2023-02-23T20:08:10.545Z,7.90
2023-02-23T20:10:16.512Z,8.05
2023-02-23T20:12:18.196Z,7.78
2023-02-23T20:14:19.606Z,8.13
2023-02-23T20:16:21.605Z,7.88
2023-02-23T20:18:24.905Z,8.30
2023-02-23T20:20:28.753Z,8.13
2023-02-23T20:22:33.342Z,8.00
2023-02-23T20:24:34.761Z,8.05
2023-02-23T20:26:37.229Z,8.55
2023-02-23T20:28:40.133Z,7.68
2023-02-23T20:30:46.805Z,8.70
2023-02-23T20:32:49.071Z,9.25
2023-02-23T20:34:51.767Z,11.50
2023-02-23T20:36:55.078Z,11.35
2023-02-23T20:38:56.703Z,12.25
2023-02-23T20:40:58.817Z,12.30
2023-02-23T20:43:00.346Z,12.90
2023-02-23T20:45:01.963Z,11.35
2023-02-23T20:47:09.755Z,11.32
2023-02-23T20:49:18.290Z,9.80
2023-02-23T20:51:20.397Z,7.93
2023-02-23T20:53:24.452Z,7.55
2023-02-23T20:55:27.213Z,7.53
2023-02-23T20:57:29.665Z,7.05
2023-02-23T20:59:32.220Z,6.90
2023-02-23T21:01:34.129Z,6.88
2023-02-23T21:03:35.933Z,7.35
2023-02-23T21:05:41.922Z,7.00
2023-02-23T21:07:45.863Z,6.95
2023-02-23T21:09:47.384Z,7.63
2023-02-23T21:11:48.877Z,8.20
2023-02-23T21:13:52.062Z,7.05
2023-02-23T21:15:59.690Z,8.20
2023-02-23T21:18:04.306Z,8.32
2023-02-23T21:20:06.845Z,8.15
2023-02-23T21:22:09.296Z,8.82
2023-02-23T21:24:12.022Z,8.63
2023-02-23T21:26:13.629Z,8.32
2023-02-23T21:28:15.663Z,9.30
2023-02-23T21:30:19.686Z,9.85
2023-02-23T21:32:22.427Z,9.52
2023-02-23T21:34:24.010Z,9.15
2023-02-23T21:36:28.370Z,10.13
2023-02-23T21:38:29.946Z,10.35
2023-02-23T21:40:31.698Z,9.90
2023-02-23T21:42:33.228Z,10.60
2023-02-23T21:44:34.928Z,10.57
2023-02-23T21:46:36.837Z,9.80
2023-02-23T21:48:38.550Z,10.60
2023-02-23T21:50:40.138Z,10.07
2023-02-23T21:52:43.702Z,10.65
2023-02-23T21:54:49.960Z,10.15
2023-02-23T21:56:51.761Z,11.82
2023-02-23T21:58:55.063Z,12.48
2023-02-23T22:00:56.836Z,12.73
2023-02-23T22:02:58.587Z,13.00
2023-02-23T22:05:00.156Z,11.75
2023-02-23T22:07:02.212Z,10.82
2023-02-23T22:09:06.536Z,10.70
2023-02-23T22:11:10.042Z,9.82
2023-02-23T22:13:11.653Z,10.05
2023-02-23T22:15:15.730Z,9.25
2023-02-23T22:17:19.283Z,9.18
2023-02-23T22:19:20.934Z,9.70
2023-02-23T22:21:23.549Z,9.80
2023-02-23T22:23:27.730Z,9.38
2023-02-23T22:25:29.680Z,9.30
2023-02-23T22:27:31.744Z,9.43
2023-02-23T22:29:35.052Z,9.18
2023-02-23T22:31:38.161Z,9.20
2023-02-23T22:33:44.767Z,9.52
2023-02-23T22:35:46.954Z,9.18
2023-02-23T22:37:48.761Z,9.23
2023-02-23T22:39:50.324Z,10.25
2023-02-23T22:41:51.830Z,9.32
2023-02-23T22:43:53.442Z,9.52
2023-02-23T22:45:55.713Z,9.55
2023-02-23T22:48:01.439Z,9.55
2023-02-23T22:50:06.146Z,10.07
2023-02-23T22:52:07.651Z,9.27
2023-02-23T22:54:10.002Z,9.23
2023-02-23T22:56:11.714Z,9.82
2023-02-23T22:58:15.108Z,9.68
2023-02-23T23:00:18.767Z,10.10
2023-02-23T23:02:21.922Z,9.23
2023-02-23T23:04:24.287Z,9.18
2023-02-23T23:06:27.078Z,8.93
2023-02-23T23:08:37.001Z,10.07
2023-02-23T23:10:41.142Z,9.85
2023-02-23T23:12:42.614Z,10.00
2023-02-23T23:14:45.454Z,10.35
2023-02-23T23:16:53.193Z,8.90
2023-02-23T23:18:56.800Z,10.30
2023-02-23T23:21:02.376Z,10.88
2023-02-23T23:23:07.113Z,11.30
2023-02-23T23:25:14.627Z,9.70
2023-02-23T23:27:16.529Z,10.73
2023-02-23T23:29:18.073Z,9.85
2023-02-23T23:31:23.611Z,10.77
2023-02-23T23:33:26.894Z,10.65
2023-02-23T23:35:28.445Z,10.80
2023-02-23T23:37:30.168Z,10.27
2023-02-23T23:39:31.686Z,11.10
2023-02-23T23:41:35.425Z,11.18
2023-02-23T23:43:37.559Z,11.55
2023-02-23T23:45:40.559Z,10.40
2023-02-23T23:47:43.859Z,11.23
2023-02-23T23:49:45.470Z,11.45
2023-02-23T23:51:50.441Z,10.45
2023-02-23T23:53:52.340Z,9.85
2023-02-23T23:55:53.890Z,10.38
2023-02-23T23:57:55.341Z,9.93
2023-02-23T23:59:56.805Z,9.95
